Time;durP1;ratioP1;P1;durP2;ratioP2;P2;SDS_P1;SDS_P2;PMS_P1;PMS_P2;Temp;Humidity;BMP_temperature;BMP_pressure;BME280_temperature;BME280_humidity;BME280_pressure;Samples;Min_cycle;Max_cycle;Signal;HPM_P1;HPM_P2
2023/12/29 00:02:18;;;;;;;;;;;;;;;7.61;100.00;99617.25;4952261;28;19923;-87
2023/12/29 00:04:51;;;;;;;;;;;;;;;7.51;100.00;99605.28;4953852;28;20119;-93
2023/12/29 00:07:16;;;;;;;;;;;;;;;7.55;100.00;99609.56;4973813;28;19918;-85
2023/12/29 00:09:41;;;;;;;;;;;;;;;7.57;100.00;99602.47;4974246;28;19918;-88
2023/12/29 00:12:07;;;;;;;;;;;;;;;7.66;100.00;99591.59;4956148;28;19922;-90
2023/12/29 00:14:33;;;;;;;;;;;;;;;7.49;100.00;99593.94;4956691;28;20335;-86
2023/12/29 00:17:00;;;;;;;;;;;;;;;7.52;100.00;99584.16;4955235;28;19974;-90
2023/12/29 00:19:26;;;;;;;;;;;;;;;7.42;100.00;99586.22;4956440;28;19961;-92
2023/12/29 00:21:51;;;;;;;;;;;;;;;7.42;100.00;99588.03;4973969;28;20009;-87
2023/12/29 00:24:19;;;;;;;;;;;;;;;7.40;100.00;99585.44;4954838;28;20373;-91
2023/12/29 00:26:45;;;;;;;;;;;;;;;7.31;100.00;99575.19;4971845;28;19922;-89
2023/12/29 00:29:10;;;;;;;;;;;;;;;7.38;100.00;99581.09;4971197;28;19930;-87
2023/12/29 00:31:35;;;;;;;;;;;;;;;7.38;100.00;99576.69;4972586;28;19924;-86
2023/12/29 00:34:00;;;;;;;;;;;;;;;7.39;100.00;99580.22;4953091;28;19926;-85
2023/12/29 00:36:26;;;;;;;;;;;;;;;7.39;100.00;99580.22;4972895;28;20366;-89
2023/12/29 00:38:51;;;;;;;;;;;;;;;7.34;100.00;99575.09;4972495;28;19957;-86
2023/12/29 00:41:16;;;;;;;;;;;;;;;7.40;100.00;99568.72;4954762;28;19922;-85
2023/12/29 00:43:41;;;;;;;;;;;;;;;7.49;100.00;99578.13;4972542;28;20365;-88
2023/12/29 06:17:26;;;;;;;;;;;;;;;8.04;100.00;99497.06;4959762;28;19933;-82
2023/12/29 06:19:51;;;;;;;;;;;;;;;7.99;100.00;99499.88;4963035;28;19922;-82
2023/12/29 06:22:16;;;;;;;;;;;;;;;8.20;100.00;99492.06;4963464;28;20944;-86
2023/12/29 06:24:42;;;;;;;;;;;;;;;8.01;100.00;99481.34;4963229;28;19919;-84
2023/12/29 06:27:11;;;;;;;;;;;;;;;8.31;100.00;99486.34;4964661;28;20403;-85
2023/12/29 06:29:36;;;;;;;;;;;;;;;8.25;100.00;99494.50;4965303;28;19918;-85
2023/12/29 06:32:02;;;;;;;;;;;;;;;8.17;100.00;99494.81;4966589;28;20005;-84
2023/12/29 06:34:28;;;;;;;;;;;;;;;8.08;100.00;99496.00;4966077;28;19926;-83
2023/12/29 06:36:53;;;;;;;;;;;;;;;7.94;100.00;99507.06;4966225;28;19918;-84
2023/12/29 06:39:18;;;;;;;;;;;;;;;7.99;100.00;99509.53;4966735;28;19923;-84
2023/12/29 06:41:43;;;;;;;;;;;;;;;8.04;100.00;99502.34;4966108;28;20401;-84
2023/12/29 06:44:08;;;;;;;;;;;;;;;8.04;100.00;99498.81;4979371;28;19968;-86
2023/12/29 06:46:34;;;;;;;;;;;;;;;7.98;100.00;99489.38;4966000;28;19925;-85
2023/12/29 06:48:59;;;;;;;;;;;;;;;7.96;100.00;99483.25;4966721;28;20281;-86
2023/12/29 06:51:24;;;;;;;;;;;;;;;8.00;100.00;99479.59;4966188;28;19925;-85
2023/12/29 06:53:50;;;;;;;;;;;;;;;8.19;100.00;99485.91;4965667;28;19922;-85
2023/12/29 06:56:15;;;;;;;;;;;;;;;7.98;100.00;99479.66;4980972;28;19918;-85
2023/12/29 06:58:41;;;;;;;;;;;;;;;7.96;100.00;99488.53;4966339;28;19925;-85
2023/12/29 07:01:06;;;;;;;;;;;;;;;7.92;100.00;99482.53;4964211;28;19922;-86
2023/12/29 07:03:31;;;;;;;;;;;;;;;7.87;100.00;99486.25;4965864;28;20049;-87
2023/12/29 07:05:57;;;;;;;;;;;;;;;7.99;100.00;99485.78;4966231;28;19926;-87
2023/12/29 07:08:22;;;;;;;;;;;;;;;7.97;100.00;99475.28;4964712;28;20000;-87
2023/12/29 07:10:50;;;;;;;;;;;;;;;7.99;100.00;99476.13;4965576;28;19918;-86
2023/12/29 07:13:15;;;;;;;;;;;;;;;7.99;100.00;99478.75;4948451;28;19922;-86
2023/12/29 07:15:40;;;;;;;;;;;;;;;8.00;100.00;99479.59;4964334;28;20016;-86
2023/12/29 07:18:05;;;;;;;;;;;;;;;8.03;100.00;99478.66;4965598;28;20439;-89
2023/12/29 07:20:31;;;;;;;;;;;;;;;7.94;100.00;99485.97;4980095;28;19915;-91
2023/12/29 07:22:56;;;;;;;;;;;;;;;8.03;100.00;99483.91;4965467;28;19918;-87
2023/12/29 07:25:21;;;;;;;;;;;;;;;8.16;100.00;99485.16;4965769;28;19922;-85
2023/12/29 07:27:46;;;;;;;;;;;;;;;8.14;100.00;99482.59;4965421;28;19969;-87
2023/12/29 07:30:12;;;;;;;;;;;;;;;8.28;100.00;99486.47;4963650;28;20149;-88
2023/12/29 07:32:37;;;;;;;;;;;;;;;8.19;100.00;99490.34;4966173;28;20405;-87
2023/12/29 07:35:02;;;;;;;;;;;;;;;8.25;100.00;99489.22;4965103;28;19922;-91
2023/12/29 07:37:28;;;;;;;;;;;;;;;8.18;100.00;99501.81;4965019;28;20009;-85
2023/12/29 07:39:53;;;;;;;;;;;;;;;8.09;100.00;99492.47;4965688;28;19923;-84
2023/12/29 07:42:18;;;;;;;;;;;;;;;8.18;100.00;99507.06;4964957;28;19918;-84
2023/12/29 07:44:44;;;;;;;;;;;;;;;8.14;100.00;99500.22;4963479;28;19960;-84
2023/12/29 07:47:11;;;;;;;;;;;;;;;8.09;100.00;99500.38;4964719;28;19922;-84
2023/12/29 07:49:36;;;;;;;;;;;;;;;8.17;100.00;99503.59;4965017;28;20334;-84
2023/12/29 07:52:01;;;;;;;;;;;;;;;8.33;100.00;99500.38;4964665;28;19919;-84
2023/12/29 07:54:27;;;;;;;;;;;;;;;8.34;100.00;99499.44;4964670;28;19928;-84
2023/12/29 07:56:52;;;;;;;;;;;;;;;8.46;100.00;99503.44;4979797;28;19954;-84
2023/12/29 07:59:17;;;;;;;;;;;;;;;8.55;100.00;99508.34;4963631;28;19929;-83
2023/12/29 08:01:43;;;;;;;;;;;;;;;8.62;100.00;99501.06;4964233;28;19926;-84
2023/12/29 08:04:08;;;;;;;;;;;;;;;8.44;100.00;99500.84;4964505;28;19918;-88
2023/12/29 08:06:33;;;;;;;;;;;;;;;8.39;100.00;99496.63;4964994;28;19925;-82
2023/12/29 08:08:59;;;;;;;;;;;;;;;8.41;100.00;99492.13;4964736;28;20342;-83
2023/12/29 08:11:24;;;;;;;;;;;;;;;8.47;100.00;99494.56;4964629;28;19919;-84
2023/12/29 08:13:49;;;;;;;;;;;;;;;8.51;100.00;99497.03;4964350;28;19918;-81
2023/12/29 08:16:17;;;;;;;;;;;;;;;8.47;100.00;99491.94;4963400;28;19973;-81
2023/12/29 08:18:42;;;;;;;;;;;;;;;8.54;100.00;99493.44;4964256;28;20353;-81
2023/12/29 08:57:41;;;;;;;;;;;;;;;8.59;100.00;99519.66;5484754;23;19980;-88
2023/12/29 09:00:06;;;;;;;;;;;;;;;8.53;100.00;99516.31;4983080;28;20265;-83
2023/12/29 09:02:31;;;;;;;;;;;;;;;8.46;100.00;99522.78;4982984;28;19926;-85
2023/12/29 09:04:57;;;;;;;;;;;;;;;8.67;100.00;99518.44;4983130;28;20333;-83
2023/12/29 09:07:22;;;;;;;;;;;;;;;8.54;100.00;99520.69;4965778;28;19968;-84
2023/12/29 09:09:47;;;;;;;;;;;;;;;8.42;100.00;99515.84;4982861;28;19918;-83
2023/12/29 09:12:13;;;;;;;;;;;;;;;8.59;100.00;99519.66;4964102;28;20379;-83
2023/12/29 09:14:38;;;;;;;;;;;;;;;8.70;100.00;99523.59;4965900;28;19921;-84
2023/12/29 09:17:05;;;;;;;;;;;;;;;8.66;100.00;99518.50;4983272;28;20381;-84
2023/12/29 09:19:30;;;;;;;;;;;;;;;8.42;100.00;99518.47;4981959;28;19922;-83
2023/12/29 09:21:55;;;;;;;;;;;;;;;8.41;100.00;99522.06;4982846;28;20005;-83
2023/12/29 09:24:20;;;;;;;;;;;;;;;8.36;100.00;99513.47;4983179;28;19922;-81
2023/12/29 09:26:45;;;;;;;;;;;;;;;8.41;100.00;99510.63;4980886;28;19918;-82
2023/12/29 09:29:11;;;;;;;;;;;;;;;8.53;100.00;99500.47;4981683;28;19975;-82
2023/12/29 09:31:36;;;;;;;;;;;;;;;8.50;100.00;99513.81;4982965;28;19921;-83
2023/12/29 09:34:01;;;;;;;;;;;;;;;8.56;100.00;99510.06;4983544;28;19922;-83
2023/12/29 09:36:27;;;;;;;;;;;;;;;8.61;100.00;99515.19;4982506;28;19922;-82
2023/12/29 09:38:52;;;;;;;;;;;;;;;8.79;100.00;99509.19;4982240;28;19957;-82
2023/12/29 09:41:18;;;;;;;;;;;;;;;8.85;100.00;99510.69;4981620;28;19961;-83
2023/12/29 09:43:45;;;;;;;;;;;;;;;8.66;100.00;99522.00;4982876;28;19966;-83
2023/12/29 09:46:12;;;;;;;;;;;;;;;8.68;100.00;99520.16;4982968;28;19918;-83
2023/12/29 09:48:37;;;;;;;;;;;;;;;8.69;100.00;99529.78;4965244;28;20325;-83
2023/12/29 09:51:06;;;;;;;;;;;;;;;8.69;100.00;99528.94;4982186;28;19921;-83
2023/12/29 09:53:33;;;;;;;;;;;;;;;8.62;100.00;99530.97;4982532;28;20373;-82
2023/12/29 09:55:59;;;;;;;;;;;;;;;8.57;100.00;99537.31;4981148;28;19972;-83
2023/12/29 09:58:25;;;;;;;;;;;;;;;8.49;100.00;99540.28;4982466;28;19933;-83
2023/12/29 10:00:51;;;;;;;;;;;;;;;8.66;100.00;99534.34;4982638;28;19976;-82
2023/12/29 10:03:16;;;;;;;;;;;;;;;8.73;100.00;99536.69;4968974;28;19928;-84
2023/12/29 10:05:41;;;;;;;;;;;;;;;8.74;100.00;99537.53;4985682;28;19925;-86
2023/12/29 10:08:09;;;;;;;;;;;;;;;8.63;100.00;99535.34;4986056;28;19933;-81
2023/12/29 10:10:36;;;;;;;;;;;;;;;8.69;100.00;99542.16;4985007;28;19933;-83
2023/12/29 10:13:03;;;;;;;;;;;;;;;8.78;100.00;99539.16;4968328;28;20584;-84
2023/12/29 10:15:37;;;;;;;;;;;;;;;8.75;100.00;99544.56;4968751;28;19914;-84
2023/12/29 10:18:21;;;;;;;;;;;;;;;8.84;100.00;99546.84;4986072;28;19921;-81
2023/12/29 10:20:53;;;;;;;;;;;;;;;8.85;100.00;99537.13;4985276;28;19922;-84
2023/12/29 10:23:18;;;;;;;;;;;;;;;8.87;100.00;99530.88;4985487;28;20021;-87
2023/12/29 10:25:43;;;;;;;;;;;;;;;8.80;100.00;99532.00;4986114;28;20433;-85
2023/12/29 10:28:09;;;;;;;;;;;;;;;8.83;100.00;99534.53;4985077;28;19922;-84
2023/12/29 10:30:34;;;;;;;;;;;;;;;8.87;100.00;99525.59;4985479;28;20016;-84
2023/12/29 10:33:00;;;;;;;;;;;;;;;8.97;100.00;99520.78;4985538;28;19917;-84
2023/12/29 10:35:26;;;;;;;;;;;;;;;8.74;100.00;99519.03;4986048;28;19987;-83
2023/12/29 10:37:51;;;;;;;;;;;;;;;8.80;100.00;99523.25;4968135;28;19918;-83
2023/12/29 10:40:17;;;;;;;;;;;;;;;8.64;100.00;99525.63;4985395;28;19929;-83
2023/12/29 10:42:55;;;;;;;;;;;;;;;8.63;100.00;99518.59;4984096;28;19918;-84
2023/12/29 10:45:21;;;;;;;;;;;;;;;8.77;100.00;99518.94;4985178;28;20013;-83
2023/12/29 10:47:46;;;;;;;;;;;;;;;8.63;100.00;99522.13;4969048;28;20266;-85
2023/12/29 10:50:11;;;;;;;;;;;;;;;8.68;100.00;99511.34;4985500;28;19925;-85
2023/12/29 10:52:37;;;;;;;;;;;;;;;8.86;100.00;99513.28;4985104;28;19925;-85
2023/12/29 10:55:10;;;;;;;;;;;;;;;8.83;100.00;99507.25;4985075;28;19953;-84
2023/12/29 10:57:37;;;;;;;;;;;;;;;8.66;100.00;99508.81;4984491;28;19918;-84
2023/12/29 11:00:03;;;;;;;;;;;;;;;8.63;100.00;99508.94;4984977;28;19933;-84
2023/12/29 11:02:29;;;;;;;;;;;;;;;8.64;100.00;99512.41;4984994;28;19922;-84
2023/12/29 11:05:06;;;;;;;;;;;;;;;8.82;100.00;99503.78;4984932;28;20387;-89
2023/12/29 11:07:32;;;;;;;;;;;;;;;8.75;100.00;99499.63;5147669;23;20041;-84
2023/12/29 11:10:00;;;;;;;;;;;;;;;8.77;100.00;99511.00;4984131;28;19922;-83
2023/12/29 11:12:26;;;;;;;;;;;;;;;8.70;100.00;99499.81;4983436;28;20290;-85
2023/12/29 11:14:51;;;;;;;;;;;;;;;8.68;100.00;99498.16;4967540;28;19922;-84
2023/12/29 11:17:17;;;;;;;;;;;;;;;8.60;100.00;99505.53;4984606;28;19922;-84
2023/12/29 11:19:43;;;;;;;;;;;;;;;8.75;100.00;99504.94;4984640;28;20068;-84
2023/12/29 11:22:08;;;;;;;;;;;;;;;8.53;100.00;99499.63;4966251;28;19930;-84
2023/12/29 11:24:34;;;;;;;;;;;;;;;8.59;100.00;99506.47;4967140;28;19972;-84
2023/12/29 11:26:59;;;;;;;;;;;;;;;8.71;100.00;99498.03;4966226;28;20567;-84
2023/12/29 11:29:24;;;;;;;;;;;;;;;8.72;100.00;99502.41;4967342;28;19918;-85
2023/12/29 11:31:50;;;;;;;;;;;;;;;8.63;100.00;99506.28;4984356;28;19921;-88
2023/12/29 11:34:15;;;;;;;;;;;;;;;8.63;100.00;99506.28;4984519;28;19946;-82
2023/12/29 11:36:43;;;;;;;;;;;;;;;8.66;100.00;99503.53;4966823;28;19922;-83
2023/12/29 11:39:15;;;;;;;;;;;;;;;8.72;100.00;99499.75;4984834;28;19918;-87
2023/12/29 11:41:43;;;;;;;;;;;;;;;8.56;100.00;99506.59;4981947;28;19918;-88
2023/12/29 11:44:08;;;;;;;;;;;;;;;8.52;100.00;99501.41;4984159;28;20326;-87
2023/12/29 11:46:35;;;;;;;;;;;;;;;8.68;100.00;99498.16;4985089;28;20418;-94
2023/12/29 11:49:04;;;;;;;;;;;;;;;8.59;100.00;99498.53;4983140;28;19918;-87
2023/12/29 11:51:39;;;;;;;;;;;;;;;8.72;100.00;99497.13;4984530;28;19918;-86
2023/12/29 11:54:05;;;;;;;;;;;;;;;8.75;100.00;99498.78;4983182;28;19918;-88
2023/12/29 11:56:43;;;;;;;;;;;;;;;8.77;100.00;99489.00;4981767;28;20333;-86
2023/12/29 11:59:15;;;;;;;;;;;;;;;8.76;100.00;99484.63;4984075;28;19940;-88
2023/12/29 12:01:40;;;;;;;;;;;;;;;8.84;100.00;99494.00;4984585;28;19958;-85
2023/12/29 12:04:28;;;;;;;;;;;;;;;8.73;100.00;99483.84;4984202;28;19972;-94
2023/12/29 12:06:53;;;;;;;;;;;;;;;8.78;100.00;99483.66;4973619;28;19929;-88
2023/12/29 12:09:23;;;;;;;;;;;;;;;8.79;100.00;99477.47;4984024;28;20424;-85
2023/12/29 12:11:49;;;;;;;;;;;;;;;8.78;100.00;99483.66;4982643;28;20041;-88
2023/12/29 12:14:34;;;;;;;;;;;;;;;8.65;100.00;99487.75;4965855;28;20289;-86
2023/12/29 12:17:01;;;;;;;;;;;;;;;8.78;100.00;99483.66;4952509;28;19925;-88
2023/12/29 12:19:32;;;;;;;;;;;;;;;8.87;100.00;99482.41;4983863;28;19921;-89
2023/12/29 12:21:59;;;;;;;;;;;;;;;8.94;100.00;99477.78;4983464;28;19929;-82
2023/12/29 12:24:25;;;;;;;;;;;;;;;8.81;100.00;99486.19;4983209;28;19930;-88
2023/12/29 12:26:51;;;;;;;;;;;;;;;8.84;100.00;99483.44;4982005;28;20376;-84
2023/12/29 12:29:19;;;;;;;;;;;;;;;8.90;100.00;99483.19;4966175;28;20009;-87
2023/12/29 12:31:53;;;;;;;;;;;;;;;8.78;100.00;99481.03;4982566;28;20373;-87
2023/12/29 12:34:18;;;;;;;;;;;;;;;8.73;100.00;99485.66;4983064;28;20357;-83
2023/12/29 12:36:50;;;;;;;;;;;;;;;8.77;100.00;99495.16;4983901;28;20008;-84
2023/12/29 12:39:15;;;;;;;;;;;;;;;8.72;100.00;99486.56;4983195;28;19928;-85
2023/12/29 12:41:41;;;;;;;;;;;;;;;8.65;100.00;99475.38;4982104;28;20254;-86
2023/12/29 12:44:09;;;;;;;;;;;;;;;8.72;100.00;99471.56;4965347;28;19977;-84
2023/12/29 12:46:37;;;;;;;;;;;;;;;8.79;100.00;99474.84;4983833;28;20288;-88
2023/12/29 12:49:03;;;;;;;;;;;;;;;8.89;100.00;99465.59;4982908;28;19967;-85
2023/12/29 12:51:29;;;;;;;;;;;;;;;8.84;100.00;99464.06;4965617;28;19961;-85
2023/12/29 12:53:55;;;;;;;;;;;;;;;8.83;100.00;99450.00;4980515;28;19942;-82
2023/12/29 12:56:20;;;;;;;;;;;;;;;8.89;100.00;99447.09;4981455;28;19922;-87
2023/12/29 12:58:46;;;;;;;;;;;;;;;8.80;100.00;99449.28;4982393;28;19965;-86
2023/12/29 13:01:12;;;;;;;;;;;;;;;8.89;100.00;99449.75;4965225;28;19914;-84
2023/12/29 13:03:38;;;;;;;;;;;;;;;9.00;100.00;99446.66;4982571;28;20285;-89
2023/12/29 13:06:04;;;;;;;;;;;;;;;9.01;100.00;99447.50;4982738;28;19965;-82
2023/12/29 13:08:30;;;;;;;;;;;;;;;9.06;100.00;99449.06;4965469;28;20021;-86
2023/12/29 13:10:56;;;;;;;;;;;;;;;9.02;100.00;99450.09;4980577;28;20020;-86
2023/12/29 13:13:21;;;;;;;;;;;;;;;9.12;100.00;99455.84;4982363;28;19929;-85
2023/12/29 13:15:49;;;;;;;;;;;;;;;9.03;100.00;99457.09;4981461;28;19946;-87
2023/12/29 13:18:18;;;;;;;;;;;;;;;9.02;100.00;99455.38;4982530;28;19961;-85
2023/12/29 13:20:46;;;;;;;;;;;;;;;8.99;100.00;99444.09;4982395;28;19918;-84
2023/12/29 13:23:11;;;;;;;;;;;;;;;8.79;100.00;99451.06;4982378;28;20410;-83
2023/12/29 13:25:39;;;;;;;;;;;;;;;8.78;100.00;99441.41;4982974;28;19917;-85
2023/12/29 13:28:06;;;;;;;;;;;;;;;8.89;100.00;99444.47;4981054;28;20049;-83
2023/12/29 13:30:31;;;;;;;;;;;;;;;8.94;100.00;99430.22;4982483;28;19918;-86
2023/12/29 13:32:57;;;;;;;;;;;;;;;8.91;100.00;99429.38;4983036;28;19944;-84
2023/12/29 13:35:32;;;;;;;;;;;;;;;9.00;100.00;99433.44;4983596;28;20365;-88
2023/12/29 13:38:04;;;;;;;;;;;;;;;9.04;100.00;99429.72;4985990;28;20068;-86
2023/12/29 13:40:37;;;;;;;;;;;;;;;9.12;100.00;99447.06;4985348;28;20551;-85
2023/12/29 13:43:03;;;;;;;;;;;;;;;9.09;100.00;99445.41;4984431;28;19965;-87
2023/12/29 13:45:29;;;;;;;;;;;;;;;9.15;100.00;99442.50;4986659;28;20023;-85
2023/12/29 13:47:59;;;;;;;;;;;;;;;9.18;100.00;99439.72;4986321;28;19918;-86
2023/12/29 13:50:24;;;;;;;;;;;;;;;9.11;100.00;99434.75;4987068;28;19928;-85
2023/12/29 13:52:50;;;;;;;;;;;;;;;9.16;100.00;99436.31;5656670;23;19926;-90
2023/12/29 13:55:22;;;;;;;;;;;;;;;9.23;100.00;99429.81;4978190;28;20077;-85
2023/12/29 13:57:48;;;;;;;;;;;;;;;9.01;100.00;99435.16;4977262;28;19918;-85
2023/12/29 14:00:26;;;;;;;;;;;;;;;8.98;100.00;99437.91;4995655;28;19925;-84
2023/12/29 14:02:55;;;;;;;;;;;;;;;9.03;100.00;99435.09;4995911;28;20421;-89
2023/12/29 14:05:30;;;;;;;;;;;;;;;8.90;100.00;99432.97;4994335;28;19925;-83
2023/12/29 14:08:18;;;;;;;;;;;;;;;9.07;100.00;99442.81;4995475;28;19918;-89
2023/12/29 14:10:46;;;;;;;;;;;;;;;9.05;100.00;99436.75;4995640;28;19921;-87
2023/12/29 14:13:12;;;;;;;;;;;;;;;9.17;100.00;99438.00;4975841;28;19914;-89
2023/12/29 14:15:41;;;;;;;;;;;;;;;9.11;100.00;99430.38;4995548;28;19925;-88
2023/12/29 14:18:09;;;;;;;;;;;;;;;9.21;100.00;99441.41;4995403;28;20324;-86
2023/12/29 14:20:35;;;;;;;;;;;;;;;9.09;100.00;99430.44;4995559;28;19924;-88
2023/12/29 14:23:04;;;;;;;;;;;;;;;9.00;100.00;99441.38;4995674;28;20277;-86
2023/12/29 14:25:30;;;;;;;;;;;;;;;9.15;100.00;99431.94;4995028;28;20281;-86
2023/12/29 14:27:59;;;;;;;;;;;;;;;9.10;100.00;99426.00;4994219;28;19925;-85
2023/12/29 14:30:24;;;;;;;;;;;;;;;9.11;100.00;99433.00;4994303;28;19922;-86
2023/12/29 14:32:49;;;;;;;;;;;;;;;8.95;100.00;99422.22;4995491;28;20335;-89
2023/12/29 14:35:15;;;;;;;;;;;;;;;9.07;100.00;99428.75;4995219;28;19921;-87
2023/12/29 14:37:43;;;;;;;;;;;;;;;9.03;100.00;99429.81;4995149;28;19925;-88
2023/12/29 14:40:10;;;;;;;;;;;;;;;9.03;100.00;99429.81;4995041;28;20440;-85
2023/12/29 14:42:35;;;;;;;;;;;;;;;8.99;100.00;99431.72;4976128;28;19965;-87
2023/12/29 14:45:01;;;;;;;;;;;;;;;8.93;100.00;99429.34;4995040;28;19973;-87
2023/12/29 14:47:26;;;;;;;;;;;;;;;8.92;100.00;99427.63;4993938;28;20365;-89
2023/12/29 14:49:51;;;;;;;;;;;;;;;9.05;100.00;99427.97;4995303;28;20358;-86
2023/12/29 14:52:16;;;;;;;;;;;;;;;9.09;100.00;99424.25;4992994;28;20354;-87
2023/12/29 14:54:42;;;;;;;;;;;;;;;9.03;100.00;99429.81;4990261;28;20292;-87
2023/12/29 14:57:07;;;;;;;;;;;;;;;9.09;100.00;99429.53;4975156;28;19922;-87
2023/12/29 14:59:32;;;;;;;;;;;;;;;9.12;100.00;99423.28;4988018;28;20012;-84
2023/12/29 15:01:58;;;;;;;;;;;;;;;9.12;100.00;99416.19;4992277;28;19922;-87
2023/12/29 15:04:23;;;;;;;;;;;;;;;9.27;100.00;99423.47;4990400;28;19921;-88
2023/12/29 15:06:49;;;;;;;;;;;;;;;8.97;100.00;99424.81;4989422;28;20020;-83
2023/12/29 15:09:15;;;;;;;;;;;;;;;8.88;100.00;99421.59;4992964;28;19929;-84
2023/12/29 15:11:40;;;;;;;;;;;;;;;8.91;100.00;99425.91;4991311;28;19925;-85
2023/12/29 15:14:05;;;;;;;;;;;;;;;9.16;100.00;99427.50;4991596;28;19922;-85
2023/12/29 15:16:31;;;;;;;;;;;;;;;9.19;100.00;99416.78;4973715;28;20385;-86
2023/12/29 15:18:56;;;;;;;;;;;;;;;9.21;100.00;99423.75;4994576;28;19929;-87
2023/12/29 15:21:21;;;;;;;;;;;;;;;9.23;100.00;99415.75;4976958;28;19988;-86
2023/12/29 15:23:49;;;;;;;;;;;;;;;9.17;100.00;99422.16;4992452;28;19925;-86
2023/12/29 15:26:17;;;;;;;;;;;;;;;9.12;100.00;99418.84;4992963;28;20729;-85
2023/12/29 15:28:43;;;;;;;;;;;;;;;9.23;100.00;99413.94;4993971;28;19922;-84
2023/12/29 15:31:10;;;;;;;;;;;;;;;9.21;100.00;99413.16;4976789;28;19930;-85
2023/12/29 15:33:35;;;;;;;;;;;;;;;9.24;100.00;99413.03;4976461;28;19922;-86
2023/12/29 15:36:01;;;;;;;;;;;;;;;9.33;100.00;99408.28;4994059;28;20347;-88
2023/12/29 15:38:26;;;;;;;;;;;;;;;9.31;100.00;99412.78;4993976;28;20441;-81
2023/12/29 15:40:51;;;;;;;;;;;;;;;14.25;100.00;99408.56;4990504;28;19926;-83
2023/12/29 15:43:16;;;;;;;;;;;;;;;11.98;100.00;99392.69;4971297;28;20349;-85
2023/12/29 15:45:42;;;;;;;;;;;;;;;10.36;100.00;99401.78;4976089;28;19945;-85
2023/12/29 15:48:07;;;;;;;;;;;;;;;9.87;100.00;99412.00;4994040;28;20448;-82
2023/12/29 15:50:32;;;;;;;;;;;;;;;9.62;100.00;99402.56;4991597;28;19922;-85
2023/12/29 15:52:57;;;;;;;;;;;;;;;9.33;100.00;99405.63;4992117;28;19930;-86
2023/12/29 15:55:23;;;;;;;;;;;;;;;9.12;100.00;99392.41;4989509;28;19922;-87
2023/12/29 15:57:50;;;;;;;;;;;;;;;9.33;100.00;99405.63;4972724;28;19922;-89
2023/12/29 16:00:18;;;;;;;;;;;;;;;9.32;100.00;99395.97;4988352;28;19922;-87
2023/12/29 16:02:44;;;;;;;;;;;;;;;9.42;100.00;99394.66;4975497;28;19928;-84
2023/12/29 16:05:10;;;;;;;;;;;;;;;9.44;100.00;99393.66;4973077;28;20008;-89
2023/12/29 16:07:38;;;;;;;;;;;;;;;9.38;100.00;99395.69;4990331;28;20005;-86
2023/12/29 16:10:03;;;;;;;;;;;;;;;9.11;100.00;99396.00;4973644;28;20346;-87
2023/12/29 16:12:28;;;;;;;;;;;;;;;9.04;100.00;99394.53;4989579;28;19928;-86
2023/12/29 16:14:53;;;;;;;;;;;;;;;8.97;100.00;99387.81;4973322;28;19922;-83
2023/12/29 16:17:19;;;;;;;;;;;;;;;9.16;100.00;99391.38;4991057;28;20369;-88
2023/12/29 16:19:46;;;;;;;;;;;;;;;9.38;100.00;99387.75;4989688;28;19945;-86
2023/12/29 16:22:11;;;;;;;;;;;;;;;9.25;100.00;99392.75;4970116;28;20568;-87
2023/12/29 16:24:42;;;;;;;;;;;;;;;9.18;100.00;99378.09;4991947;28;20424;-90
2023/12/29 16:27:07;;;;;;;;;;;;;;;9.33;100.00;99382.69;4987081;28;20300;-86
2023/12/29 16:29:33;;;;;;;;;;;;;;;9.25;100.00;99385.69;4975455;28;19922;-86
2023/12/29 16:31:58;;;;;;;;;;;;;;;9.06;100.00;99388.25;4992684;28;19948;-87
2023/12/29 16:34:23;;;;;;;;;;;;;;;9.27;100.00;99389.13;4974864;28;20381;-88
2023/12/29 16:36:58;;;;;;;;;;;;;;;9.10;100.00;99375.78;4987758;28;19929;-84
2023/12/29 16:39:24;;;;;;;;;;;;;;;9.19;100.00;99383.31;4983264;28;19921;-82
2023/12/29 16:41:49;;;;;;;;;;;;;;;9.21;100.00;99384.09;4991429;28;19922;-83
2023/12/29 16:44:14;;;;;;;;;;;;;;;9.35;100.00;99372.91;4989386;28;20317;-87
2023/12/29 16:46:40;;;;;;;;;;;;;;;9.12;100.00;99368.63;4991824;28;19927;-84
2023/12/29 16:49:07;;;;;;;;;;;;;;;9.19;100.00;99372.72;4987941;28;19922;-93
2023/12/29 16:51:33;;;;;;;;;;;;;;;9.38;100.00;99371.91;4990322;28;19928;-85
2023/12/29 16:53:58;;;;;;;;;;;;;;;9.26;100.00;99368.88;4988934;28;20005;-87
2023/12/29 16:56:23;;;;;;;;;;;;;;;9.37;100.00;99360.47;4971943;28;19926;-84
2023/12/29 16:58:48;;;;;;;;;;;;;;;9.41;100.00;99361.19;4970726;28;19968;-84
2023/12/29 17:01:17;;;;;;;;;;;;;;;9.44;100.00;99369.00;4973687;28;19926;-92
2023/12/29 17:03:42;;;;;;;;;;;;;;;10.21;100.00;99376.03;4971655;28;20340;-86
2023/12/29 17:06:08;;;;;;;;;;;;;;;9.92;100.00;99367.66;4973011;28;19925;-89
2023/12/29 17:08:35;;;;;;;;;;;;;;;9.64;100.00;99366.31;4988504;28;19922;-89
2023/12/29 17:11:02;;;;;;;;;;;;;;;9.59;100.00;99364.81;4956856;28;19922;-88
2023/12/29 17:13:29;;;;;;;;;;;;;;;9.70;100.00;99369.59;4972579;28;19945;-84
2023/12/29 17:15:54;;;;;;;;;;;;;;;9.68;100.00;99374.09;4990474;28;19925;-86
2023/12/29 17:18:19;;;;;;;;;;;;;;;9.53;100.00;99373.03;4991632;28;19975;-84
2023/12/29 17:20:45;;;;;;;;;;;;;;;9.55;100.00;99368.50;4974984;28;20651;-88
2023/12/29 17:23:12;;;;;;;;;;;;;;;9.63;100.00;99372.50;4975034;28;19925;-83
2023/12/29 17:25:38;;;;;;;;;;;;;;;9.70;100.00;99364.28;4992529;28;19921;-88
2023/12/29 17:28:03;;;;;;;;;;;;;;;9.55;100.00;99363.22;4988581;28;19929;-88
2023/12/29 17:30:28;;;;;;;;;;;;;;;9.47;100.00;99363.56;4968658;28;20037;-86
2023/12/29 17:32:53;;;;;;;;;;;;;;;9.55;100.00;99369.38;4991985;28;19940;-88
2023/12/29 17:35:23;;;;;;;;;;;;;;;9.47;100.00;99363.56;4993525;23;19933;-89
2023/12/29 17:37:48;;;;;;;;;;;;;;;9.52;100.00;99374.78;4989399;28;20382;-89
2023/12/29 17:40:14;;;;;;;;;;;;;;;9.52;100.00;99374.78;4988988;28;19928;-89
2023/12/29 17:42:39;;;;;;;;;;;;;;;9.63;100.00;99366.38;4990466;28;19929;-87
2023/12/29 17:45:06;;;;;;;;;;;;;;;9.60;100.00;99372.66;4988302;28;19929;-88
2023/12/29 17:47:31;;;;;;;;;;;;;;;9.49;100.00;99364.34;4972098;28;19925;-85
2023/12/29 17:49:56;;;;;;;;;;;;;;;9.56;100.00;99371.09;4991270;28;20410;-88
2023/12/29 17:52:21;;;;;;;;;;;;;;;9.68;100.00;99380.25;4991221;28;19944;-89
2023/12/29 17:54:49;;;;;;;;;;;;;;;9.60;100.00;99372.66;4989445;28;19929;-87
2023/12/29 17:57:14;;;;;;;;;;;;;;;9.61;100.00;99369.09;4989170;28;20379;-90
2023/12/29 17:59:40;;;;;;;;;;;;;;;9.54;100.00;99372.94;4989766;28;20020;-84
2023/12/29 18:02:05;;;;;;;;;;;;;;;9.63;100.00;99369.88;4989952;28;19925;-85
2023/12/29 18:04:30;;;;;;;;;;;;;;;9.65;100.00;99367.16;4989092;28;19976;-86
2023/12/29 18:06:55;;;;;;;;;;;;;;;9.45;100.00;99370.72;4971552;28;19922;-88
2023/12/29 18:09:21;;;;;;;;;;;;;;;9.41;100.00;99366.47;4992103;28;20281;-85
2023/12/29 18:11:50;;;;;;;;;;;;;;;9.57;100.00;99375.47;4972847;28;20005;-87
2023/12/29 18:14:15;;;;;;;;;;;;;;;9.53;100.00;99373.88;4970942;28;19928;-86
2023/12/29 18:16:41;;;;;;;;;;;;;;;9.53;100.00;99375.66;4973961;28;20380;-89
2023/12/29 18:19:06;;;;;;;;;;;;;;;10.19;100.00;99375.22;4989766;28;19926;-84
2023/12/29 18:21:34;;;;;;;;;;;;;;;9.87;100.00;99380.25;4991459;28;19914;-84
2023/12/29 18:23:59;;;;;;;;;;;;;;;9.48;100.00;99383.81;4970099;28;20004;-86
2023/12/29 18:26:24;;;;;;;;;;;;;;;9.56;100.00;99386.97;4994367;28;20060;-84
2023/12/29 18:28:50;;;;;;;;;;;;;;;9.39;100.00;99386.84;4977639;28;19925;-87
2023/12/29 18:31:15;;;;;;;;;;;;;;;9.54;100.00;99382.66;4976881;28;19921;-87
2023/12/29 18:33:43;;;;;;;;;;;;;;;9.42;100.00;99392.84;4995589;28;19922;-82
2023/12/29 18:36:09;;;;;;;;;;;;;;;9.47;100.00;99387.38;4995055;28;19928;-85
2023/12/29 18:38:34;;;;;;;;;;;;;;;9.42;100.00;99392.00;4977883;28;20276;-85
2023/12/29 18:41:04;;;;;;;;;;;;;;;9.50;100.00;99387.22;4993651;28;19918;-88
2023/12/29 18:43:29;;;;;;;;;;;;;;;9.60;100.00;99391.16;4995247;28;20440;-89
2023/12/29 18:45:55;;;;;;;;;;;;;;;9.45;100.00;99394.53;4993779;28;20054;-88
2023/12/29 18:48:20;;;;;;;;;;;;;;;9.62;100.00;99386.69;4974427;28;20380;-86
2023/12/29 18:50:45;;;;;;;;;;;;;;;9.62;100.00;99386.69;4977748;28;20369;-85